createdAt,value
2023-04-07T00:01:15.857Z,6.44
2023-04-07T00:03:46.863Z,6.39
2023-04-07T00:06:15.239Z,6.34
2023-04-07T00:08:48.945Z,6.29
2023-04-07T00:11:17.937Z,6.34
2023-04-07T00:13:47.647Z,6.35
2023-04-07T00:16:16.374Z,6.38
2023-04-07T00:18:44.920Z,6.42
2023-04-07T00:21:13.296Z,6.43
2023-04-07T00:23:43.105Z,6.41
2023-04-07T00:26:11.585Z,6.41
2023-04-07T00:28:40.990Z,6.44
2023-04-07T00:31:13.477Z,6.45
2023-04-07T00:33:41.842Z,6.42
2023-04-07T00:36:11.062Z,6.35
2023-04-07T00:38:40.005Z,6.33
2023-04-07T00:41:08.526Z,6.34
2023-04-07T00:43:38.833Z,6.39
2023-04-07T00:46:07.650Z,6.40
2023-04-07T00:48:37.010Z,6.42
2023-04-07T00:51:05.710Z,6.39
2023-04-07T00:53:33.891Z,6.33
2023-04-07T00:56:03.389Z,6.30
2023-04-07T00:58:31.926Z,6.26
2023-04-07T01:01:16.142Z,6.23
2023-04-07T01:03:49.119Z,6.20
2023-04-07T01:06:18.715Z,6.21
2023-04-07T01:09:08.124Z,6.21
2023-04-07T01:11:42.819Z,6.23
2023-04-07T01:14:12.316Z,6.26
2023-04-07T01:16:48.781Z,6.27
2023-04-07T01:19:21.797Z,6.23
2023-04-07T01:21:56.186Z,6.21
2023-04-07T01:24:43.916Z,6.15
2023-04-07T01:27:21.630Z,6.15
2023-04-07T01:29:51.229Z,6.14
2023-04-07T01:32:20.631Z,6.13
2023-04-07T01:34:52.184Z,6.13
2023-04-07T01:37:22.024Z,6.14
2023-04-07T01:39:50.577Z,6.12
2023-04-07T01:42:19.667Z,6.13
2023-04-07T01:44:48.358Z,6.15
2023-04-07T01:47:16.859Z,6.15
2023-04-07T01:49:45.833Z,6.17
2023-04-07T01:52:14.312Z,6.16
2023-04-07T01:54:43.512Z,6.16
2023-04-07T01:57:12.501Z,6.16
2023-04-07T01:59:42.110Z,6.15
2023-04-07T02:02:14.450Z,6.11
2023-04-07T02:04:53.512Z,6.09
2023-04-07T02:07:25.063Z,6.06
2023-04-07T02:09:54.061Z,6.11
2023-04-07T02:12:22.330Z,6.16
2023-04-07T02:15:01.160Z,6.16
2023-04-07T02:17:32.285Z,6.15
2023-04-07T02:20:00.998Z,6.12
2023-04-07T02:22:29.876Z,6.07
2023-04-07T02:24:58.461Z,6.04
2023-04-07T02:27:29.098Z,6.04
2023-04-07T02:29:57.685Z,6.05
2023-04-07T02:32:26.478Z,6.07
2023-04-07T02:34:55.248Z,6.09
2023-04-07T02:37:27.352Z,6.08
2023-04-07T02:39:56.730Z,6.06
2023-04-07T02:42:25.603Z,6.07
2023-04-07T02:44:54.150Z,6.06
2023-04-07T02:47:22.725Z,6.05
2023-04-07T02:49:51.558Z,6.08
2023-04-07T02:52:20.242Z,6.11
2023-04-07T02:54:48.729Z,6.13
2023-04-07T02:57:18.748Z,6.16
2023-04-07T02:59:47.946Z,6.18
2023-04-07T03:02:19.152Z,6.19
2023-04-07T03:04:47.768Z,6.18
2023-04-07T03:07:17.196Z,6.14
2023-04-07T03:09:47.806Z,6.14
2023-04-07T03:12:18.016Z,6.13
2023-04-07T03:14:46.805Z,6.13
2023-04-07T03:17:19.525Z,6.17
2023-04-07T03:19:52.106Z,6.23
2023-04-07T03:22:21.473Z,6.27
2023-04-07T03:24:54.249Z,6.28
2023-04-07T03:27:24.272Z,6.28
2023-04-07T03:29:53.260Z,6.29
2023-04-07T03:32:23.333Z,6.27
2023-04-07T03:34:51.859Z,6.25
2023-04-07T03:37:20.298Z,6.25
2023-04-07T03:39:50.272Z,6.21
2023-04-07T03:42:28.784Z,6.21
2023-04-07T03:45:02.805Z,6.28
2023-04-07T03:47:32.187Z,6.31
2023-04-07T03:50:03.262Z,6.36
2023-04-07T03:52:34.328Z,6.43
2023-04-07T03:55:09.966Z,6.51
2023-04-07T03:57:38.906Z,6.51
2023-04-07T04:00:08.761Z,6.48
2023-04-07T04:02:47.667Z,6.45
2023-04-07T04:05:20.017Z,6.45
2023-04-07T04:07:51.678Z,6.44
2023-04-07T04:10:21.444Z,6.46
2023-04-07T04:12:51.698Z,6.52
2023-04-07T04:15:21.621Z,6.59
2023-04-07T04:17:51.301Z,6.68
2023-04-07T04:20:27.545Z,6.75
2023-04-07T04:22:55.941Z,6.78
2023-04-07T04:25:24.769Z,6.77
2023-04-07T04:27:58.254Z,6.76
2023-04-07T04:30:28.477Z,6.76
2023-04-07T04:33:01.960Z,6.73
2023-04-07T04:35:40.798Z,6.71
2023-04-07T04:38:12.657Z,6.71
2023-04-07T04:40:49.132Z,6.69
2023-04-07T04:43:20.903Z,6.66
2023-04-07T04:45:49.497Z,6.63
2023-04-07T04:48:18.976Z,6.63
2023-04-07T04:50:49.601Z,6.65
2023-04-07T04:53:21.593Z,6.71
2023-04-07T04:55:54.692Z,6.77
2023-04-07T04:58:25.699Z,6.83
2023-04-07T05:00:59.978Z,6.88
2023-04-07T05:03:51.391Z,6.89
2023-04-07T05:06:24.321Z,6.89
2023-04-07T05:08:57.113Z,6.90
2023-04-07T05:11:28.240Z,6.89
2023-04-07T05:13:57.342Z,6.87
2023-04-07T05:16:28.106Z,6.89
2023-04-07T05:18:58.710Z,6.94
2023-04-07T05:21:30.309Z,7.01
2023-04-07T05:24:09.294Z,7.09
2023-04-07T05:26:38.791Z,7.12
2023-04-07T05:29:07.287Z,7.14
2023-04-07T05:31:37.573Z,7.13
2023-04-07T05:34:08.440Z,7.09
2023-04-07T05:36:38.651Z,7.06
2023-04-07T05:39:07.792Z,7.07
2023-04-07T05:41:36.646Z,7.06
2023-04-07T05:44:07.060Z,7.10
2023-04-07T05:46:38.312Z,7.18
2023-04-07T05:49:18.892Z,7.27
2023-04-07T05:51:50.650Z,7.35
2023-04-07T05:54:19.316Z,7.36
2023-04-07T05:56:48.308Z,7.36
2023-04-07T05:59:17.913Z,7.35
2023-04-07T06:01:49.352Z,7.34
2023-04-07T06:04:18.215Z,7.35
2023-04-07T06:06:47.740Z,7.35
2023-04-07T06:09:26.410Z,7.33
2023-04-07T06:11:54.973Z,7.33
2023-04-07T06:14:23.655Z,7.36
2023-04-07T06:16:56.665Z,7.44
2023-04-07T06:19:28.104Z,7.52
2023-04-07T06:21:56.769Z,7.58
2023-04-07T06:24:25.574Z,7.60
2023-04-07T06:26:54.883Z,7.63
2023-04-07T06:29:23.241Z,7.66
2023-04-07T06:31:53.259Z,7.63
2023-04-07T06:34:21.977Z,7.67
2023-04-07T06:36:50.532Z,7.80
2023-04-07T06:39:20.334Z,7.92
2023-04-07T06:41:48.811Z,7.99
2023-04-07T06:44:17.228Z,8.04
2023-04-07T06:46:47.831Z,8.11
2023-04-07T06:49:18.456Z,8.14
2023-04-07T06:51:46.842Z,8.11
2023-04-07T06:54:15.828Z,8.07
2023-04-07T06:56:45.227Z,8.08
2023-04-07T06:59:13.733Z,8.10
2023-04-07T07:01:42.664Z,8.19
2023-04-07T07:04:11.897Z,8.29
2023-04-07T07:06:41.208Z,8.32
2023-04-07T07:09:10.403Z,8.34
2023-04-07T07:11:45.443Z,8.35
2023-04-07T07:14:15.964Z,8.35
2023-04-07T07:16:44.557Z,8.35
2023-04-07T07:19:17.745Z,8.36
2023-04-07T07:21:46.748Z,8.37
2023-04-07T07:24:15.628Z,8.36
2023-04-07T07:26:46.360Z,8.29
2023-04-07T07:29:14.949Z,8.31
2023-04-07T07:31:45.571Z,8.39
2023-04-07T07:34:14.257Z,8.43
2023-04-07T07:36:42.854Z,8.39
2023-04-07T07:39:11.937Z,8.38
2023-04-07T07:41:40.633Z,8.34
2023-04-07T07:44:09.203Z,8.29
2023-04-07T07:46:37.919Z,8.30
2023-04-07T07:49:07.293Z,8.34
2023-04-07T07:51:36.183Z,8.42
2023-04-07T07:54:04.659Z,8.51
2023-04-07T07:56:33.245Z,8.54
2023-04-07T07:59:02.339Z,8.55
2023-04-07T08:01:33.615Z,8.55
2023-04-07T08:04:02.737Z,8.45
2023-04-07T08:06:31.979Z,8.37
2023-04-07T08:09:01.380Z,8.30
2023-04-07T08:11:29.993Z,8.27
2023-04-07T08:14:00.713Z,8.29
2023-04-07T08:16:29.748Z,8.28
2023-04-07T08:18:58.377Z,8.21
2023-04-07T08:21:28.186Z,8.15
2023-04-07T08:23:57.300Z,8.17
2023-04-07T08:26:25.570Z,8.20
2023-04-07T08:28:56.391Z,8.23
2023-04-07T08:31:24.706Z,8.26
2023-04-07T08:33:59.191Z,8.27
2023-04-07T08:36:28.255Z,8.28
2023-04-07T08:38:58.097Z,8.37
2023-04-07T08:41:31.187Z,8.46
2023-04-07T08:43:59.715Z,8.46
2023-04-07T08:46:28.410Z,8.29
2023-04-07T08:48:57.242Z,8.17
2023-04-07T08:51:27.566Z,8.14
2023-04-07T08:54:16.532Z,8.24
2023-04-07T08:56:48.904Z,8.32
2023-04-07T08:59:25.599Z,8.35
2023-04-07T09:01:54.818Z,8.40
2023-04-07T09:04:25.000Z,8.50
2023-04-07T09:06:53.776Z,8.59
2023-04-07T09:09:22.775Z,8.71
2023-04-07T09:11:54.117Z,8.74
2023-04-07T09:14:22.710Z,8.73
2023-04-07T09:16:51.404Z,8.71
2023-04-07T09:19:20.889Z,8.61
2023-04-07T09:21:52.902Z,8.51
2023-04-07T09:24:21.965Z,8.48
2023-04-07T09:26:50.643Z,8.49
2023-04-07T09:29:20.791Z,8.47
2023-04-07T09:31:52.075Z,8.48
2023-04-07T09:34:24.076Z,8.50
2023-04-07T09:36:52.856Z,8.44
2023-04-07T09:39:21.535Z,8.37
2023-04-07T09:41:50.261Z,8.36
2023-04-07T09:44:19.430Z,8.40
2023-04-07T09:46:50.879Z,8.45
2023-04-07T09:49:20.747Z,8.50
2023-04-07T09:51:52.948Z,8.53
2023-04-07T09:54:37.939Z,8.58
2023-04-07T09:57:07.017Z,8.68
2023-04-07T09:59:37.964Z,8.78
2023-04-07T10:02:08.483Z,8.90
2023-04-07T10:04:37.739Z,8.97
2023-04-07T10:07:06.266Z,9.03
2023-04-07T10:09:35.774Z,9.07
2023-04-07T10:12:04.383Z,9.11
2023-04-07T10:14:32.941Z,9.17
2023-04-07T10:17:03.133Z,9.25
2023-04-07T10:19:32.985Z,9.34
2023-04-07T10:22:02.275Z,9.42
2023-04-07T10:24:56.774Z,9.50
2023-04-07T10:27:29.951Z,9.61
2023-04-07T10:29:58.744Z,9.73
2023-04-07T10:32:27.324Z,9.84
2023-04-07T10:34:59.530Z,9.89
2023-04-07T10:37:28.281Z,9.89
2023-04-07T10:40:15.599Z,9.93
2023-04-07T10:42:43.979Z,10.02
2023-04-07T10:45:13.276Z,10.08
2023-04-07T10:48:01.237Z,10.10
2023-04-07T10:50:29.804Z,10.12
2023-04-07T10:53:10.976Z,10.13
2023-04-07T10:55:39.772Z,10.24
2023-04-07T10:58:15.096Z,10.36
2023-04-07T11:00:45.021Z,10.43
2023-04-07T11:03:14.328Z,10.47
2023-04-07T11:05:43.628Z,10.63
2023-04-07T11:08:12.021Z,10.72
2023-04-07T11:10:47.765Z,10.72
2023-04-07T11:13:18.797Z,10.84
2023-04-07T11:15:47.393Z,11.04
2023-04-07T11:18:23.749Z,11.08
2023-04-07T11:20:53.560Z,11.21
2023-04-07T11:23:23.357Z,11.40
2023-04-07T11:25:52.668Z,11.45
2023-04-07T11:28:20.955Z,11.45
2023-04-07T11:30:53.088Z,11.46
2023-04-07T11:33:23.662Z,11.50
2023-04-07T11:35:53.469Z,11.51
2023-04-07T11:38:22.440Z,11.47
2023-04-07T11:40:51.557Z,11.56
2023-04-07T11:43:25.446Z,11.65
2023-04-07T11:46:12.232Z,11.80
2023-04-07T11:48:47.708Z,11.90
2023-04-07T11:51:21.231Z,12.00
2023-04-07T11:53:54.698Z,12.10
2023-04-07T11:56:24.817Z,12.20
2023-04-07T11:58:53.716Z,12.22
2023-04-07T12:01:22.303Z,12.26
2023-04-07T12:04:02.447Z,12.39
2023-04-07T12:06:38.447Z,12.54
2023-04-07T12:09:08.523Z,12.62
2023-04-07T12:11:37.540Z,12.67
2023-04-07T12:14:09.373Z,12.67
2023-04-07T12:16:39.014Z,12.63
2023-04-07T12:19:07.353Z,12.64
2023-04-07T12:21:35.739Z,12.62
2023-04-07T12:24:04.117Z,12.58
2023-04-07T12:26:32.704Z,12.49
2023-04-07T12:29:07.247Z,12.43
2023-04-07T12:31:35.920Z,12.32
2023-04-07T12:34:06.247Z,12.27
2023-04-07T12:36:35.569Z,12.28
2023-04-07T12:39:03.964Z,12.30
2023-04-07T12:41:33.948Z,12.38
2023-04-07T12:44:03.171Z,12.45
2023-04-07T12:46:34.019Z,12.49
2023-04-07T12:49:04.100Z,12.54
2023-04-07T12:51:36.766Z,12.55
2023-04-07T12:54:06.156Z,12.57
2023-04-07T12:56:34.743Z,12.55
2023-04-07T12:59:03.593Z,12.55
2023-04-07T13:01:33.513Z,12.55
2023-04-07T13:04:03.032Z,12.59
2023-04-07T13:06:32.609Z,12.65
2023-04-07T13:09:01.402Z,12.69
2023-04-07T13:11:30.537Z,12.68
2023-04-07T13:14:01.102Z,12.65
2023-04-07T13:16:31.651Z,12.67
2023-04-07T13:19:00.703Z,12.71
2023-04-07T13:21:45.160Z,12.76
2023-04-07T13:24:17.122Z,12.83
2023-04-07T13:26:46.719Z,12.86
2023-04-07T13:29:16.242Z,12.86
2023-04-07T13:31:48.007Z,12.85
2023-04-07T13:34:17.481Z,12.89
2023-04-07T13:36:47.600Z,13.00
2023-04-07T13:39:16.290Z,13.07
2023-04-07T13:41:48.528Z,13.13
2023-04-07T13:44:18.388Z,13.17
2023-04-07T13:46:47.630Z,13.13
2023-04-07T13:49:18.200Z,13.06
2023-04-07T13:51:47.112Z,13.03
2023-04-07T13:54:17.260Z,13.04
2023-04-07T13:56:45.691Z,13.02
2023-04-07T13:59:16.078Z,12.98
2023-04-07T14:01:44.858Z,12.95
2023-04-07T14:04:14.578Z,12.91
2023-04-07T14:06:43.691Z,12.93
2023-04-07T14:09:13.240Z,12.95
2023-04-07T14:11:42.104Z,12.95
2023-04-07T14:14:14.742Z,12.94
2023-04-07T14:16:45.837Z,12.94
2023-04-07T14:19:14.917Z,12.89
2023-04-07T14:21:45.495Z,12.86
2023-04-07T14:24:13.825Z,12.90
2023-04-07T14:26:47.263Z,12.94
2023-04-07T14:29:15.821Z,12.97
2023-04-07T14:31:45.639Z,12.97
2023-04-07T14:34:13.997Z,12.95
2023-04-07T14:36:44.188Z,12.86
2023-04-07T14:39:13.656Z,12.83
2023-04-07T14:41:42.203Z,12.90
2023-04-07T14:44:13.952Z,13.01
2023-04-07T14:46:43.101Z,13.07
2023-04-07T14:49:13.688Z,13.03
2023-04-07T14:51:42.074Z,13.00
2023-04-07T14:54:11.116Z,13.00
2023-04-07T14:56:41.669Z,12.96
2023-04-07T14:59:11.870Z,12.93
2023-04-07T15:01:40.979Z,12.88
2023-04-07T15:04:11.586Z,12.84
2023-04-07T15:06:44.056Z,12.79
2023-04-07T15:09:14.062Z,12.73
2023-04-07T15:11:43.260Z,12.68
2023-04-07T15:14:14.549Z,12.63
2023-04-07T15:16:48.726Z,12.59
2023-04-07T15:19:17.434Z,12.58
2023-04-07T15:21:46.232Z,12.57
2023-04-07T15:24:17.874Z,12.59
2023-04-07T15:26:47.672Z,12.59
2023-04-07T15:29:17.658Z,12.57
2023-04-07T15:31:46.532Z,12.55
2023-04-07T15:34:15.680Z,12.51
2023-04-07T15:36:44.143Z,12.48
2023-04-07T15:39:13.442Z,12.42
2023-04-07T15:41:44.054Z,12.40
2023-04-07T15:44:13.459Z,12.39
2023-04-07T15:46:41.743Z,12.42
2023-04-07T15:49:10.725Z,12.45
2023-04-07T15:51:40.316Z,12.44
2023-04-07T15:54:09.317Z,12.41
2023-04-07T15:56:38.312Z,12.37
2023-04-07T15:59:06.861Z,12.34
2023-04-07T16:01:35.523Z,12.30
2023-04-07T16:04:07.653Z,12.26
2023-04-07T16:06:36.781Z,12.21
2023-04-07T16:09:11.082Z,12.20
2023-04-07T16:11:42.298Z,12.22
2023-04-07T16:14:10.785Z,12.23
2023-04-07T16:16:47.672Z,12.21
2023-04-07T16:19:16.897Z,12.19
2023-04-07T16:21:46.427Z,12.13
2023-04-07T16:24:16.344Z,12.08
2023-04-07T16:26:50.703Z,12.04
2023-04-07T16:29:19.793Z,12.03
2023-04-07T16:31:48.838Z,12.00
2023-04-07T16:34:18.542Z,11.96
2023-04-07T16:36:47.691Z,11.93
2023-04-07T16:39:18.261Z,11.87
2023-04-07T16:41:46.758Z,11.78
2023-04-07T16:44:22.646Z,11.71
2023-04-07T16:46:53.184Z,11.68
2023-04-07T16:49:24.617Z,11.67
2023-04-07T16:51:55.126Z,11.62
2023-04-07T16:54:23.588Z,11.57
2023-04-07T16:56:54.292Z,11.49
2023-04-07T16:59:24.206Z,11.39
2023-04-07T17:01:59.182Z,11.32
2023-04-07T17:04:28.384Z,11.30
2023-04-07T17:06:57.677Z,11.29
2023-04-07T17:09:28.189Z,11.34
2023-04-07T17:11:57.649Z,11.35
2023-04-07T17:14:26.171Z,11.33
2023-04-07T17:16:58.004Z,11.31
2023-04-07T17:19:27.921Z,11.26
2023-04-07T17:21:56.770Z,11.24
2023-04-07T17:24:26.133Z,11.22
2023-04-07T17:26:55.564Z,11.18
2023-04-07T17:29:29.404Z,11.18
2023-04-07T17:31:57.933Z,11.15
2023-04-07T17:34:26.326Z,11.12
2023-04-07T17:37:01.816Z,11.11
2023-04-07T17:39:31.932Z,11.06
2023-04-07T17:42:02.526Z,11.03
2023-04-07T17:44:34.488Z,11.00
2023-04-07T17:47:03.518Z,10.99
2023-04-07T17:49:32.994Z,10.97
2023-04-07T17:52:01.913Z,10.95
2023-04-07T17:54:31.350Z,10.95
2023-04-07T17:57:03.788Z,10.93
2023-04-07T17:59:32.801Z,10.92
2023-04-07T18:02:07.665Z,10.89
2023-04-07T18:04:37.998Z,10.82
2023-04-07T18:07:06.872Z,10.76
2023-04-07T18:09:35.620Z,10.73
2023-04-07T18:12:08.957Z,10.71
2023-04-07T18:14:38.621Z,10.70
2023-04-07T18:17:07.301Z,10.69
2023-04-07T18:19:37.968Z,10.66
2023-04-07T18:22:06.638Z,10.66
2023-04-07T18:24:39.671Z,10.64
2023-04-07T18:27:08.633Z,10.62
2023-04-07T18:29:39.653Z,10.63
2023-04-07T18:32:09.200Z,10.64
2023-04-07T18:34:38.448Z,10.65
2023-04-07T18:37:09.193Z,10.61
2023-04-07T18:39:37.664Z,10.61
2023-04-07T18:42:06.896Z,10.61
2023-04-07T18:44:37.241Z,10.62
2023-04-07T18:47:05.794Z,10.61
2023-04-07T18:49:35.206Z,10.60
2023-04-07T18:52:04.571Z,10.56
2023-04-07T18:54:35.223Z,10.54
2023-04-07T18:57:05.527Z,10.52
2023-04-07T18:59:35.292Z,10.52
2023-04-07T19:02:04.618Z,10.53
2023-04-07T19:04:33.761Z,10.53
2023-04-07T19:07:02.799Z,10.51
2023-04-07T19:09:33.526Z,10.49
2023-04-07T19:12:02.509Z,10.40
2023-04-07T19:14:32.585Z,10.30
2023-04-07T19:17:01.666Z,10.28
2023-04-07T19:19:30.740Z,10.26
2023-04-07T19:22:02.731Z,10.17
2023-04-07T19:24:32.495Z,10.10
2023-04-07T19:27:02.457Z,10.05
2023-04-07T19:29:32.683Z,10.05
2023-04-07T19:32:01.785Z,10.14
2023-04-07T19:34:31.083Z,10.21
2023-04-07T19:36:59.886Z,10.22
2023-04-07T19:39:28.379Z,10.20
2023-04-07T19:41:57.892Z,10.22
2023-04-07T19:44:26.837Z,10.25
2023-04-07T19:46:55.424Z,10.27
2023-04-07T19:49:24.822Z,10.29
2023-04-07T19:51:56.272Z,10.23
2023-04-07T19:54:25.113Z,10.07
2023-04-07T19:56:54.305Z,10.02
2023-04-07T19:59:24.018Z,10.01
2023-04-07T20:01:53.191Z,10.02
2023-04-07T20:04:21.715Z,10.04
2023-04-07T20:06:50.126Z,10.06
2023-04-07T20:09:20.756Z,10.08
2023-04-07T20:11:49.548Z,10.08
2023-04-07T20:14:17.821Z,10.08
2023-04-07T20:16:47.387Z,10.05
2023-04-07T20:19:16.118Z,10.04
2023-04-07T20:21:45.084Z,10.03
2023-04-07T20:24:13.691Z,10.05
2023-04-07T20:34:09.375Z,10.05
2023-04-07T20:36:38.455Z,10.04
2023-04-07T20:39:06.827Z,10.04
2023-04-07T20:41:35.318Z,10.02
2023-04-07T20:44:04.532Z,9.97
2023-04-07T20:46:37.251Z,9.96
2023-04-07T20:49:08.150Z,9.95
2023-04-07T20:51:37.229Z,9.95
2023-04-07T20:54:05.652Z,9.95
2023-04-07T20:56:35.218Z,9.99
2023-04-07T20:59:09.424Z,10.01
2023-04-07T21:01:38.766Z,9.98
2023-04-07T21:04:07.330Z,9.92
2023-04-07T21:06:36.200Z,9.89
2023-04-07T21:09:06.031Z,9.88
2023-04-07T21:11:34.802Z,9.87
2023-04-07T21:14:03.493Z,9.84
2023-04-07T21:16:31.763Z,9.82
2023-04-07T21:19:01.163Z,9.79
2023-04-07T21:21:33.331Z,9.78
2023-04-07T21:24:01.714Z,9.78
2023-04-07T21:26:30.498Z,9.79
2023-04-07T21:28:59.488Z,9.78
2023-04-07T21:31:28.109Z,9.77
2023-04-07T21:33:56.554Z,9.77
2023-04-07T21:36:25.134Z,9.77
2023-04-07T21:38:54.132Z,9.78
2023-04-07T21:41:22.616Z,9.75
2023-04-07T21:43:51.706Z,9.72
2023-04-07T21:46:20.205Z,9.73
2023-04-07T21:48:49.512Z,9.75
2023-04-07T21:51:20.732Z,9.78
2023-04-07T21:53:49.109Z,9.78
2023-04-07T21:56:17.791Z,9.78
2023-04-07T21:58:47.537Z,9.78
2023-04-07T22:01:17.363Z,9.76
2023-04-07T22:03:46.752Z,9.78
2023-04-07T22:06:15.818Z,9.81
2023-04-07T22:08:51.649Z,9.80
2023-04-07T22:11:29.070Z,9.79
2023-04-07T22:13:57.744Z,9.81
2023-04-07T22:16:26.281Z,9.85
2023-04-07T22:19:00.747Z,9.86
2023-04-07T22:21:30.052Z,9.86
2023-04-07T22:23:58.628Z,9.84
2023-04-07T22:26:28.257Z,9.82
2023-04-07T22:28:56.915Z,9.81
2023-04-07T22:31:25.825Z,9.68
2023-04-07T22:33:54.188Z,9.54
2023-04-07T22:36:22.476Z,9.52
2023-04-07T22:38:51.211Z,9.52
2023-04-07T22:41:19.585Z,9.44
2023-04-07T22:43:48.005Z,9.42
2023-04-07T22:46:17.996Z,9.41
2023-04-07T22:48:46.430Z,9.45
2023-04-07T22:51:17.545Z,9.38
2023-04-07T22:53:46.478Z,9.36
2023-04-07T22:56:19.523Z,9.35
2023-04-07T22:58:49.440Z,9.29
2023-04-07T23:01:18.472Z,9.29
2023-04-07T23:03:47.733Z,9.29
2023-04-07T23:06:16.833Z,9.33
2023-04-07T23:08:45.205Z,9.40
2023-04-07T23:11:13.579Z,9.41
2023-04-07T23:13:42.369Z,9.38
2023-04-07T23:16:14.029Z,9.39
2023-04-07T23:18:43.149Z,9.49
2023-04-07T23:21:12.219Z,9.60
2023-04-07T23:23:40.805Z,9.65
2023-04-07T23:26:09.481Z,9.67
2023-04-07T23:28:38.401Z,9.62
2023-04-07T23:31:08.193Z,9.54
2023-04-07T23:33:37.503Z,9.49
2023-04-07T23:36:06.434Z,9.49
2023-04-07T23:38:36.632Z,9.50
2023-04-07T23:41:05.194Z,9.54
2023-04-07T23:43:33.868Z,9.59
2023-04-07T23:46:02.615Z,9.65
2023-04-07T23:48:32.467Z,9.66
2023-04-07T23:51:00.860Z,9.68
2023-04-07T23:53:29.431Z,9.69
2023-04-07T23:55:57.928Z,9.69
2023-04-07T23:58:27.010Z,9.70
